UAL1686 KTUS-KDEN
Flight info
| Callsign | UAL1686 |
|---|---|
| Flight time | 1h 30m |
| Altitude | 35000 |
| Route | NOCHI SSO J104 ONM/N0454F360 GNDLA TBARR4 |
| Aircraft | B38M/M-SDE1FGHILORVWXY/HB1 |
Departure
| Time | 2026-04-23 00:54 |
|---|---|
| Airport | Tucson International Airport (KTUS) |
Arrival
| Time | 2026-04-23 02:24 |
|---|---|
| Airport | Denver International Airport (KDEN) |
| Time | Latitude | Longitude | Altitude | Speed | Heading |
|---|---|---|---|---|---|
| 2026-04-23 00:37 | 32.11899 | -110.93648 | 2587 ft | 0 kts | 277° |
| 2026-04-23 00:42 | 32.11898 | -110.93641 | 2578 ft | 4 kts | 277° |
| 2026-04-23 00:43 | 32.11894 | -110.93609 | 2587 ft | 4 kts | 277° |
| 2026-04-23 00:43 | 32.11890 | -110.93568 | 2587 ft | 4 kts | 277° |
| 2026-04-23 00:43 | 32.11887 | -110.93547 | 2587 ft | 3 kts | 277° |
| 2026-04-23 00:43 | 32.11887 | -110.93542 | 2587 ft | 2 kts | 277° |
| 2026-04-23 00:48 | 32.11887 | -110.93543 | 2580 ft | 1 kts | 277° |
| 2026-04-23 00:48 | 32.11878 | -110.93569 | 2583 ft | 7 kts | 221° |
| 2026-04-23 00:48 | 32.11803 | -110.93604 | 2585 ft | 16 kts | 214° |
| 2026-04-23 00:49 | 32.11699 | -110.93688 | 2578 ft | 19 kts | 210° |
| 2026-04-23 00:49 | 32.11608 | -110.93686 | 2567 ft | 17 kts | 147° |
| 2026-04-23 00:49 | 32.11503 | -110.93566 | 2574 ft | 23 kts | 135° |
| 2026-04-23 00:49 | 32.11392 | -110.93434 | 2576 ft | 23 kts | 135° |
| 2026-04-23 00:50 | 32.11267 | -110.93293 | 2573 ft | 26 kts | 135° |
| 2026-04-23 00:50 | 32.11139 | -110.93140 | 2570 ft | 26 kts | 136° |
| 2026-04-23 00:50 | 32.11025 | -110.93005 | 2569 ft | 23 kts | 135° |
| 2026-04-23 00:50 | 32.10905 | -110.92865 | 2569 ft | 25 kts | 135° |
| 2026-04-23 00:51 | 32.10801 | -110.92743 | 2572 ft | 19 kts | 135° |
| 2026-04-23 00:51 | 32.10705 | -110.92631 | 2573 ft | 20 kts | 136° |
| 2026-04-23 00:51 | 32.10606 | -110.92516 | 2575 ft | 20 kts | 135° |
| 2026-04-23 00:51 | 32.10505 | -110.92395 | 2573 ft | 22 kts | 137° |
| 2026-04-23 00:52 | 32.10398 | -110.92284 | 2568 ft | 20 kts | 123° |
| 2026-04-23 00:52 | 32.10301 | -110.92200 | 2568 ft | 16 kts | 192° |
| 2026-04-23 00:52 | 32.10225 | -110.92285 | 2567 ft | 10 kts | 258° |
| 2026-04-23 00:52 | 32.10253 | -110.92349 | 2569 ft | 9 kts | 314° |
| 2026-04-23 00:53 | 32.10312 | -110.92419 | 2570 ft | 28 kts | 315° |
| 2026-04-23 00:53 | 32.10622 | -110.92782 | 2570 ft | 95 kts | 315° |
| 2026-04-23 00:53 | 32.11234 | -110.93497 | 2571 ft | 150 kts | 315° |
| 2026-04-23 00:53 | 32.12027 | -110.94438 | 2682 ft | 181 kts | 313° |
| 2026-04-23 00:54 | 32.12954 | -110.95510 | 3197 ft | 193 kts | 312° |
| 2026-04-23 00:54 | 32.13910 | -110.96632 | 3927 ft | 193 kts | 311° |
| 2026-04-23 00:54 | 32.14851 | -110.97749 | 4614 ft | 195 kts | 311° |
| 2026-04-23 00:54 | 32.15848 | -110.98928 | 4993 ft | 215 kts | 314° |
| 2026-04-23 00:55 | 32.17122 | -111.00035 | 5392 ft | 236 kts | 329° |
| 2026-04-23 00:55 | 32.18745 | -111.00538 | 6043 ft | 253 kts | 356° |
| 2026-04-23 00:55 | 32.20479 | -111.00013 | 6737 ft | 266 kts | 27° |
| 2026-04-23 00:55 | 32.21874 | -110.98548 | 7403 ft | 277 kts | 55° |
| 2026-04-23 00:56 | 32.22580 | -110.96402 | 7899 ft | 290 kts | 83° |
| 2026-04-23 00:56 | 32.22374 | -110.94040 | 8471 ft | 293 kts | 115° |
| 2026-04-23 00:56 | 32.21456 | -110.91901 | 9197 ft | 293 kts | 120° |
| 2026-04-23 00:56 | 32.20649 | -110.89696 | 10022 ft | 293 kts | 108° |
| 2026-04-23 00:57 | 32.20319 | -110.87293 | 10648 ft | 305 kts | 93° |
| 2026-04-23 00:57 | 32.20433 | -110.84764 | 11355 ft | 310 kts | 85° |
| 2026-04-23 00:57 | 32.20666 | -110.82211 | 12117 ft | 314 kts | 85° |
| 2026-04-23 00:57 | 32.20874 | -110.79649 | 12982 ft | 315 kts | 87° |
| 2026-04-23 00:58 | 32.21027 | -110.77042 | 13727 ft | 321 kts | 88° |
| 2026-04-23 00:58 | 32.21154 | -110.74401 | 14481 ft | 325 kts | 89° |
| 2026-04-23 00:58 | 32.21259 | -110.71659 | 14860 ft | 345 kts | 89° |
| 2026-04-23 00:58 | 32.21376 | -110.68788 | 15185 ft | 365 kts | 88° |
| 2026-04-23 00:59 | 32.21507 | -110.65685 | 15596 ft | 381 kts | 88° |
| 2026-04-23 00:59 | 32.21644 | -110.62518 | 16091 ft | 393 kts | 88° |
| 2026-04-23 00:59 | 32.21785 | -110.59269 | 16718 ft | 398 kts | 88° |
| 2026-04-23 00:59 | 32.21928 | -110.55981 | 17385 ft | 404 kts | 88° |
| 2026-04-23 01:00 | 32.22073 | -110.52654 | 17998 ft | 408 kts | 88° |
| 2026-04-23 01:00 | 32.22219 | -110.49287 | 18583 ft | 412 kts | 88° |
| 2026-04-23 01:00 | 32.22365 | -110.45889 | 19169 ft | 417 kts | 88° |
| 2026-04-23 01:00 | 32.22510 | -110.42496 | 19781 ft | 421 kts | 88° |
| 2026-04-23 01:01 | 32.22657 | -110.39032 | 20340 ft | 426 kts | 89° |
| 2026-04-23 01:01 | 32.22804 | -110.35530 | 21004 ft | 427 kts | 89° |
| 2026-04-23 01:01 | 32.22951 | -110.32006 | 21503 ft | 432 kts | 89° |
| 2026-04-23 01:01 | 32.23099 | -110.28454 | 22044 ft | 435 kts | 89° |
| 2026-04-23 01:02 | 32.23248 | -110.24865 | 22557 ft | 439 kts | 89° |
| 2026-04-23 01:02 | 32.23396 | -110.21246 | 23071 ft | 442 kts | 89° |
| 2026-04-23 01:02 | 32.23544 | -110.17605 | 23560 ft | 446 kts | 89° |
| 2026-04-23 01:02 | 32.23692 | -110.13940 | 24045 ft | 449 kts | 89° |
| 2026-04-23 01:03 | 32.23841 | -110.10240 | 24521 ft | 452 kts | 89° |
| 2026-04-23 01:03 | 32.23990 | -110.06517 | 24944 ft | 456 kts | 89° |
| 2026-04-23 01:03 | 32.24139 | -110.02757 | 25343 ft | 461 kts | 89° |
| 2026-04-23 01:03 | 32.24289 | -109.98953 | 25752 ft | 465 kts | 89° |
| 2026-04-23 01:04 | 32.24438 | -109.95125 | 26136 ft | 469 kts | 89° |
| 2026-04-23 01:04 | 32.24587 | -109.91264 | 26505 ft | 473 kts | 88° |
| 2026-04-23 01:04 | 32.24886 | -109.83456 | 27259 ft | 480 kts | 88° |
| 2026-04-23 01:05 | 32.25035 | -109.79503 | 27601 ft | 483 kts | 88° |
| 2026-04-23 01:05 | 32.25184 | -109.75523 | 27923 ft | 487 kts | 88° |
| 2026-04-23 01:05 | 32.25333 | -109.71513 | 28288 ft | 490 kts | 88° |
| 2026-04-23 01:05 | 32.25482 | -109.67477 | 28632 ft | 493 kts | 88° |
| 2026-04-23 01:06 | 32.25630 | -109.63413 | 28909 ft | 497 kts | 88° |
| 2026-04-23 01:06 | 32.25778 | -109.59319 | 29270 ft | 500 kts | 88° |
| 2026-04-23 01:06 | 32.25925 | -109.55205 | 29595 ft | 503 kts | 88° |
| 2026-04-23 01:06 | 32.26073 | -109.51063 | 29851 ft | 507 kts | 88° |
| 2026-04-23 01:07 | 32.26219 | -109.46900 | 30204 ft | 508 kts | 88° |
| 2026-04-23 01:07 | 32.26366 | -109.42721 | 30507 ft | 511 kts | 88° |
| 2026-04-23 01:07 | 32.26511 | -109.38513 | 30779 ft | 514 kts | 87° |
| 2026-04-23 01:07 | 32.26655 | -109.34341 | 31068 ft | 517 kts | 86° |
| 2026-04-23 01:08 | 32.27176 | -109.30141 | 31330 ft | 517 kts | 72° |
| 2026-04-23 01:08 | 32.28438 | -109.26193 | 31643 ft | 513 kts | 59° |
| 2026-04-23 01:08 | 32.30395 | -109.22700 | 31796 ft | 508 kts | 43° |
| 2026-04-23 01:08 | 32.32840 | -109.19724 | 32138 ft | 505 kts | 39° |
| 2026-04-23 01:09 | 32.35338 | -109.16778 | 32361 ft | 509 kts | 38° |
| 2026-04-23 01:09 | 32.37860 | -109.13845 | 32722 ft | 508 kts | 38° |
| 2026-04-23 01:09 | 32.40393 | -109.10929 | 33116 ft | 508 kts | 38° |
| 2026-04-23 01:09 | 32.42926 | -109.08026 | 33523 ft | 506 kts | 37° |
| 2026-04-23 01:10 | 32.45454 | -109.05129 | 33886 ft | 505 kts | 37° |
| 2026-04-23 01:10 | 32.47977 | -109.02234 | 34268 ft | 504 kts | 37° |
| 2026-04-23 01:10 | 32.50493 | -108.99345 | 34656 ft | 503 kts | 37° |
| 2026-04-23 01:10 | 32.53003 | -108.96463 | 34946 ft | 504 kts | 37° |
| 2026-04-23 01:11 | 32.58047 | -108.90659 | 35015 ft | 504 kts | 37° |
| 2026-04-23 01:11 | 32.63072 | -108.84871 | 35015 ft | 504 kts | 37° |
| 2026-04-23 01:12 | 32.68099 | -108.79069 | 35008 ft | 504 kts | 37° |
| 2026-04-23 01:12 | 32.73117 | -108.73269 | 35004 ft | 504 kts | 37° |
| 2026-04-23 01:13 | 32.78134 | -108.67460 | 35012 ft | 503 kts | 37° |
| 2026-04-23 01:13 | 32.83148 | -108.61646 | 35024 ft | 504 kts | 37° |
| 2026-04-23 01:14 | 32.88162 | -108.55821 | 35032 ft | 504 kts | 37° |
| 2026-04-23 01:14 | 32.93181 | -108.49980 | 35060 ft | 505 kts | 37° |
| 2026-04-23 01:15 | 32.98201 | -108.44131 | 35052 ft | 505 kts | 38° |
| 2026-04-23 01:15 | 33.03225 | -108.38264 | 35051 ft | 506 kts | 38° |
| 2026-04-23 01:16 | 33.08252 | -108.32385 | 35058 ft | 506 kts | 38° |
| 2026-04-23 01:16 | 33.13272 | -108.26505 | 35042 ft | 505 kts | 38° |
| 2026-04-23 01:17 | 33.18295 | -108.20611 | 35049 ft | 507 kts | 38° |
| 2026-04-23 01:17 | 33.23318 | -108.14704 | 35047 ft | 507 kts | 38° |
| 2026-04-23 01:18 | 33.28342 | -108.08787 | 35028 ft | 507 kts | 38° |
| 2026-04-23 01:18 | 33.33363 | -108.02863 | 35021 ft | 508 kts | 38° |
| 2026-04-23 01:19 | 33.38392 | -107.96918 | 35020 ft | 508 kts | 39° |
| 2026-04-23 01:19 | 33.43408 | -107.90980 | 35007 ft | 507 kts | 39° |
| 2026-04-23 01:20 | 33.48429 | -107.85025 | 35001 ft | 508 kts | 39° |
| 2026-04-23 01:20 | 33.53443 | -107.79067 | 34999 ft | 508 kts | 39° |
| 2026-04-23 01:21 | 33.58462 | -107.73095 | 34985 ft | 508 kts | 39° |
| 2026-04-23 01:21 | 33.63471 | -107.67123 | 34984 ft | 508 kts | 39° |
| 2026-04-23 01:22 | 33.68480 | -107.61140 | 34975 ft | 508 kts | 39° |
| 2026-04-23 01:22 | 33.73450 | -107.55195 | 34978 ft | 508 kts | 39° |
| 2026-04-23 01:23 | 33.78446 | -107.49207 | 34970 ft | 507 kts | 39° |
| 2026-04-23 01:23 | 33.83432 | -107.43220 | 34962 ft | 506 kts | 39° |
| 2026-04-23 01:24 | 33.88416 | -107.37227 | 34961 ft | 506 kts | 39° |
| 2026-04-23 01:24 | 33.93389 | -107.31236 | 34963 ft | 506 kts | 39° |
| 2026-04-23 01:25 | 33.98355 | -107.25242 | 34952 ft | 505 kts | 39° |
| 2026-04-23 01:25 | 34.03311 | -107.19249 | 34941 ft | 505 kts | 40° |
| 2026-04-23 01:26 | 34.08272 | -107.13243 | 34939 ft | 506 kts | 40° |
| 2026-04-23 01:26 | 34.13233 | -107.07224 | 34935 ft | 505 kts | 40° |
| 2026-04-23 01:27 | 34.18183 | -107.01208 | 34930 ft | 505 kts | 40° |
| 2026-04-23 01:27 | 34.23125 | -106.95192 | 34930 ft | 504 kts | 40° |
| 2026-04-23 01:28 | 34.27226 | -106.90193 | 34941 ft | 503 kts | 40° |
| 2026-04-23 01:28 | 34.33403 | -106.84074 | 34943 ft | 485 kts | 19° |
| 2026-04-23 01:29 | 34.36530 | -106.82708 | 34925 ft | 472 kts | 4° |
| 2026-04-23 01:29 | 34.39746 | -106.82246 | 34945 ft | 463 kts | 356° |
| 2026-04-23 01:29 | 34.46187 | -106.81885 | 34933 ft | 462 kts | 354° |
| 2026-04-23 01:30 | 34.51577 | -106.81739 | 34936 ft | 463 kts | 354° |
| 2026-04-23 01:30 | 34.57977 | -106.81607 | 34935 ft | 463 kts | 354° |
| 2026-04-23 01:31 | 34.64418 | -106.81484 | 34933 ft | 463 kts | 354° |
| 2026-04-23 01:31 | 34.70858 | -106.81363 | 34930 ft | 463 kts | 353° |
| 2026-04-23 01:32 | 34.77307 | -106.81243 | 34945 ft | 463 kts | 354° |
| 2026-04-23 01:32 | 34.83760 | -106.81123 | 34926 ft | 463 kts | 354° |
| 2026-04-23 01:33 | 34.90205 | -106.81003 | 34944 ft | 464 kts | 354° |
| 2026-04-23 01:33 | 34.96667 | -106.80882 | 34966 ft | 464 kts | 354° |
| 2026-04-23 01:34 | 35.03118 | -106.80762 | 34974 ft | 463 kts | 354° |
| 2026-04-23 01:34 | 35.09570 | -106.80641 | 34976 ft | 464 kts | 354° |
| 2026-04-23 01:35 | 35.16029 | -106.80519 | 34980 ft | 464 kts | 354° |
| 2026-04-23 01:35 | 35.22493 | -106.80398 | 34980 ft | 464 kts | 354° |
| 2026-04-23 01:36 | 35.28959 | -106.80276 | 34981 ft | 464 kts | 354° |
| 2026-04-23 01:36 | 35.35427 | -106.80154 | 34981 ft | 465 kts | 354° |
| 2026-04-23 01:37 | 35.41904 | -106.80032 | 34983 ft | 465 kts | 354° |
| 2026-04-23 01:37 | 35.48378 | -106.79909 | 34979 ft | 465 kts | 354° |
| 2026-04-23 01:38 | 35.54852 | -106.79787 | 34966 ft | 465 kts | 354° |
| 2026-04-23 01:38 | 35.61333 | -106.79663 | 34952 ft | 466 kts | 354° |
| 2026-04-23 01:39 | 35.67773 | -106.79541 | 34998 ft | 467 kts | 354° |
| 2026-04-23 01:39 | 35.74266 | -106.79417 | 34996 ft | 466 kts | 354° |
| 2026-04-23 01:40 | 35.80750 | -106.79294 | 35004 ft | 466 kts | 354° |
| 2026-04-23 01:40 | 35.87234 | -106.79170 | 35006 ft | 466 kts | 354° |
| 2026-04-23 01:41 | 35.93721 | -106.79045 | 35017 ft | 466 kts | 354° |
| 2026-04-23 01:41 | 36.00206 | -106.78921 | 35016 ft | 466 kts | 354° |
| 2026-04-23 01:42 | 36.06699 | -106.78798 | 35012 ft | 467 kts | 354° |
| 2026-04-23 01:42 | 36.13183 | -106.78675 | 34998 ft | 467 kts | 354° |
| 2026-04-23 01:43 | 36.19682 | -106.78553 | 35023 ft | 468 kts | 354° |
| 2026-04-23 01:43 | 36.26204 | -106.78424 | 34984 ft | 468 kts | 354° |
| 2026-04-23 01:44 | 36.32717 | -106.78304 | 34999 ft | 467 kts | 354° |
| 2026-04-23 01:44 | 36.39203 | -106.78174 | 35058 ft | 469 kts | 354° |
| 2026-04-23 01:45 | 36.45697 | -106.78049 | 35029 ft | 468 kts | 354° |
| 2026-04-23 01:45 | 36.52229 | -106.77919 | 35018 ft | 467 kts | 354° |
| 2026-04-23 01:46 | 36.58751 | -106.77789 | 35026 ft | 469 kts | 354° |
| 2026-04-23 01:46 | 36.65276 | -106.77660 | 35013 ft | 470 kts | 354° |
| 2026-04-23 01:47 | 36.71767 | -106.77510 | 35043 ft | 464 kts | 353° |
| 2026-04-23 01:47 | 36.78216 | -106.77196 | 34994 ft | 477 kts | 5° |
| 2026-04-23 01:48 | 36.81460 | -106.76176 | 35098 ft | 483 kts | 7° |
| 2026-04-23 01:48 | 36.84722 | -106.75244 | 34974 ft | 477 kts | 6° |
| 2026-04-23 01:48 | 36.91242 | -106.73442 | 35023 ft | 481 kts | 6° |
| 2026-04-23 01:49 | 36.97780 | -106.71589 | 35061 ft | 484 kts | 7° |
| 2026-04-23 01:49 | 37.04323 | -106.69757 | 35030 ft | 480 kts | 6° |
| 2026-04-23 01:50 | 37.10848 | -106.67922 | 35114 ft | 480 kts | 6° |
| 2026-04-23 01:50 | 37.17374 | -106.66086 | 35133 ft | 479 kts | 6° |
| 2026-04-23 01:51 | 37.23897 | -106.64251 | 35104 ft | 480 kts | 6° |
| 2026-04-23 01:51 | 37.30400 | -106.62413 | 35112 ft | 479 kts | 6° |
| 2026-04-23 01:52 | 37.36916 | -106.60570 | 35119 ft | 480 kts | 6° |
| 2026-04-23 01:52 | 37.40163 | -106.59643 | 35220 ft | 480 kts | 6° |
| 2026-04-23 01:52 | 37.43436 | -106.58719 | 35016 ft | 482 kts | 7° |
| 2026-04-23 01:53 | 37.46689 | -106.57791 | 35200 ft | 479 kts | 7° |
| 2026-04-23 01:53 | 37.49956 | -106.56859 | 35081 ft | 482 kts | 7° |
| 2026-04-23 01:53 | 37.56487 | -106.54999 | 35090 ft | 482 kts | 7° |
| 2026-04-23 01:54 | 37.63008 | -106.53138 | 35073 ft | 478 kts | 7° |
| 2026-04-23 01:54 | 37.69527 | -106.51278 | 35046 ft | 482 kts | 7° |
| 2026-04-23 01:55 | 37.76056 | -106.49414 | 35060 ft | 480 kts | 7° |
| 2026-04-23 01:55 | 37.82552 | -106.47547 | 35024 ft | 477 kts | 7° |
| 2026-04-23 01:56 | 37.89061 | -106.45687 | 35001 ft | 480 kts | 7° |
| 2026-04-23 01:56 | 37.95550 | -106.43830 | 35020 ft | 477 kts | 7° |
| 2026-04-23 01:57 | 38.02034 | -106.41942 | 35087 ft | 478 kts | 7° |
| 2026-04-23 01:57 | 38.05245 | -106.41021 | 34979 ft | 480 kts | 7° |
| 2026-04-23 01:57 | 38.08512 | -106.40084 | 35032 ft | 481 kts | 7° |
| 2026-04-23 01:58 | 38.15058 | -106.38192 | 35028 ft | 481 kts | 7° |
| 2026-04-23 01:58 | 38.21643 | -106.36282 | 35054 ft | 490 kts | 7° |
| 2026-04-23 01:59 | 38.28293 | -106.34362 | 35047 ft | 489 kts | 7° |
| 2026-04-23 01:59 | 38.34936 | -106.32430 | 35131 ft | 490 kts | 7° |
| 2026-04-23 02:00 | 38.41590 | -106.30504 | 35170 ft | 491 kts | 7° |
| 2026-04-23 02:00 | 38.48236 | -106.28574 | 35196 ft | 492 kts | 7° |
| 2026-04-23 02:01 | 38.54901 | -106.26625 | 35265 ft | 492 kts | 7° |
| 2026-04-23 02:01 | 38.61558 | -106.24604 | 35115 ft | 496 kts | 13° |
| 2026-04-23 02:02 | 38.64742 | -106.22819 | 35001 ft | 506 kts | 27° |
| 2026-04-23 02:02 | 38.67518 | -106.20052 | 34586 ft | 509 kts | 43° |
| 2026-04-23 02:02 | 38.69799 | -106.16643 | 34400 ft | 496 kts | 47° |
| 2026-04-23 02:02 | 38.72014 | -106.13284 | 33954 ft | 492 kts | 47° |
| 2026-04-23 02:03 | 38.74232 | -106.09903 | 33010 ft | 500 kts | 47° |
| 2026-04-23 02:03 | 38.76485 | -106.06480 | 32103 ft | 505 kts | 47° |
| 2026-04-23 02:03 | 38.78732 | -106.03022 | 31499 ft | 504 kts | 48° |
| 2026-04-23 02:03 | 38.80964 | -105.99587 | 31004 ft | 499 kts | 48° |
| 2026-04-23 02:04 | 38.83181 | -105.96178 | 30391 ft | 497 kts | 48° |
| 2026-04-23 02:04 | 38.85392 | -105.92773 | 29709 ft | 496 kts | 48° |
| 2026-04-23 02:04 | 38.87602 | -105.89367 | 29019 ft | 496 kts | 49° |
| 2026-04-23 02:04 | 38.89801 | -105.85950 | 28317 ft | 496 kts | 49° |
| 2026-04-23 02:05 | 38.91988 | -105.82547 | 27748 ft | 492 kts | 49° |
| 2026-04-23 02:05 | 38.94161 | -105.79162 | 27127 ft | 490 kts | 49° |
| 2026-04-23 02:05 | 38.96325 | -105.75788 | 26479 ft | 488 kts | 49° |
| 2026-04-23 02:05 | 38.98478 | -105.72427 | 25836 ft | 486 kts | 49° |
| 2026-04-23 02:06 | 39.00624 | -105.69075 | 25202 ft | 484 kts | 49° |
| 2026-04-23 02:06 | 39.02762 | -105.65753 | 24657 ft | 480 kts | 49° |
| 2026-04-23 02:06 | 39.04866 | -105.62485 | 24219 ft | 467 kts | 50° |
| 2026-04-23 02:06 | 39.06908 | -105.59310 | 23816 ft | 453 kts | 49° |
| 2026-04-23 02:07 | 39.08887 | -105.56229 | 23369 ft | 441 kts | 50° |
| 2026-04-23 02:07 | 39.10827 | -105.53206 | 22922 ft | 438 kts | 50° |
| 2026-04-23 02:07 | 39.12749 | -105.50207 | 22483 ft | 428 kts | 50° |
| 2026-04-23 02:07 | 39.14624 | -105.47274 | 22056 ft | 422 kts | 50° |
| 2026-04-23 02:08 | 39.16470 | -105.44344 | 21607 ft | 421 kts | 50° |
| 2026-04-23 02:08 | 39.18312 | -105.41423 | 21193 ft | 418 kts | 50° |
| 2026-04-23 02:08 | 39.20136 | -105.38526 | 20798 ft | 415 kts | 50° |
| 2026-04-23 02:08 | 39.21947 | -105.35651 | 20361 ft | 411 kts | 50° |
| 2026-04-23 02:09 | 39.23727 | -105.32820 | 19965 ft | 402 kts | 50° |
| 2026-04-23 02:09 | 39.25465 | -105.30053 | 19556 ft | 391 kts | 50° |
| 2026-04-23 02:09 | 39.27152 | -105.27366 | 19163 ft | 380 kts | 50° |
| 2026-04-23 02:09 | 39.28904 | -105.24889 | 18827 ft | 367 kts | 37° |
| 2026-04-23 02:10 | 39.30965 | -105.22970 | 18556 ft | 365 kts | 33° |
| 2026-04-23 02:10 | 39.33023 | -105.21045 | 18279 ft | 365 kts | 34° |
| 2026-04-23 02:10 | 39.35079 | -105.19126 | 17976 ft | 364 kts | 33° |
| 2026-04-23 02:10 | 39.37121 | -105.17227 | 17712 ft | 359 kts | 33° |
| 2026-04-23 02:11 | 39.39140 | -105.15348 | 17611 ft | 360 kts | 33° |
| 2026-04-23 02:11 | 39.41171 | -105.13456 | 17428 ft | 360 kts | 33° |
| 2026-04-23 02:11 | 39.43203 | -105.11563 | 17187 ft | 359 kts | 34° |
| 2026-04-23 02:11 | 39.45197 | -105.09704 | 16935 ft | 357 kts | 34° |
| 2026-04-23 02:12 | 39.47218 | -105.07840 | 16636 ft | 356 kts | 33° |
| 2026-04-23 02:12 | 39.49231 | -105.05998 | 16382 ft | 352 kts | 33° |
| 2026-04-23 02:12 | 39.51219 | -105.04175 | 16122 ft | 350 kts | 33° |
| 2026-04-23 02:12 | 39.53207 | -105.02348 | 15905 ft | 348 kts | 33° |
| 2026-04-23 02:13 | 39.55141 | -105.00570 | 15931 ft | 334 kts | 33° |
| 2026-04-23 02:13 | 39.57007 | -104.98853 | 15920 ft | 328 kts | 33° |
| 2026-04-23 02:13 | 39.58912 | -104.97101 | 15853 ft | 342 kts | 33° |
| 2026-04-23 02:13 | 39.60865 | -104.95302 | 15814 ft | 347 kts | 33° |
| 2026-04-23 02:14 | 39.62839 | -104.93481 | 15781 ft | 349 kts | 33° |
| 2026-04-23 02:14 | 39.64823 | -104.91651 | 15742 ft | 350 kts | 33° |
| 2026-04-23 02:14 | 39.66806 | -104.89819 | 15534 ft | 350 kts | 33° |
| 2026-04-23 02:14 | 39.68789 | -104.87988 | 15278 ft | 347 kts | 33° |
| 2026-04-23 02:15 | 39.72747 | -104.84679 | 14645 ft | 337 kts | 15° |
| 2026-04-23 02:15 | 39.75024 | -104.84204 | 14236 ft | 330 kts | 356° |
| 2026-04-23 02:15 | 39.77306 | -104.84146 | 13920 ft | 327 kts | 357° |
| 2026-04-23 02:16 | 39.79576 | -104.84088 | 13528 ft | 327 kts | 357° |
| 2026-04-23 02:16 | 39.81838 | -104.84045 | 13109 ft | 323 kts | 357° |
| 2026-04-23 02:16 | 39.84076 | -104.84010 | 12642 ft | 319 kts | 356° |
| 2026-04-23 02:16 | 39.85537 | -104.83989 | 12327 ft | 315 kts | 356° |
| 2026-04-23 02:17 | 39.87702 | -104.83961 | 11877 ft | 307 kts | 357° |
| 2026-04-23 02:17 | 39.89800 | -104.83933 | 11492 ft | 297 kts | 356° |
| 2026-04-23 02:17 | 39.91822 | -104.83912 | 11140 ft | 284 kts | 355° |
| 2026-04-23 02:17 | 39.93760 | -104.83889 | 10805 ft | 277 kts | 356° |
| 2026-04-23 02:18 | 39.95693 | -104.83863 | 10443 ft | 279 kts | 356° |
| 2026-04-23 02:18 | 39.97607 | -104.83840 | 10163 ft | 270 kts | 356° |
| 2026-04-23 02:18 | 39.99458 | -104.83723 | 9829 ft | 266 kts | 10° |
| 2026-04-23 02:18 | 40.01099 | -104.82732 | 9517 ft | 257 kts | 37° |
| 2026-04-23 02:19 | 40.02341 | -104.81095 | 9135 ft | 254 kts | 58° |
| 2026-04-23 02:19 | 40.03057 | -104.79067 | 8868 ft | 240 kts | 79° |
| 2026-04-23 02:19 | 40.03272 | -104.76998 | 8720 ft | 218 kts | 94° |
| 2026-04-23 02:19 | 40.03128 | -104.75133 | 8380 ft | 201 kts | 110° |
| 2026-04-23 02:20 | 40.02634 | -104.73511 | 8030 ft | 185 kts | 126° |
| 2026-04-23 02:20 | 40.01917 | -104.72196 | 7801 ft | 173 kts | 140° |
| 2026-04-23 02:20 | 40.00980 | -104.71230 | 7707 ft | 172 kts | 154° |
| 2026-04-23 02:20 | 39.99940 | -104.70500 | 7456 ft | 167 kts | 164° |
| 2026-04-23 02:21 | 39.98845 | -104.70091 | 7186 ft | 162 kts | 175° |
| 2026-04-23 02:21 | 39.97730 | -104.69972 | 6690 ft | 161 kts | 185° |
| 2026-04-23 02:21 | 39.96633 | -104.69952 | 6412 ft | 155 kts | 185° |
| 2026-04-23 02:21 | 39.95554 | -104.69899 | 6198 ft | 155 kts | 182° |
| 2026-04-23 02:22 | 39.94479 | -104.69839 | 6020 ft | 156 kts | 183° |
| 2026-04-23 02:22 | 39.93382 | -104.69744 | 5823 ft | 166 kts | 180° |
| 2026-04-23 02:22 | 39.92242 | -104.69546 | 5739 ft | 166 kts | 182° |
| 2026-04-23 02:22 | 39.91110 | -104.69537 | 5631 ft | 164 kts | 187° |
| 2026-04-23 02:23 | 39.89961 | -104.69586 | 5464 ft | 165 kts | 186° |
| 2026-04-23 02:23 | 39.88863 | -104.69616 | 5368 ft | 146 kts | 181° |
| 2026-04-23 02:23 | 39.87988 | -104.69626 | 5367 ft | 105 kts | 180° |
| 2026-04-23 02:23 | 39.87368 | -104.69631 | 5368 ft | 73 kts | 180° |
| 2026-04-23 02:24 | 39.86968 | -104.69633 | 5368 ft | 50 kts | 176° |
| 2026-04-23 02:24 | 39.86663 | -104.69519 | 5368 ft | 31 kts | 153° |
| 2026-04-23 02:24 | 39.86484 | -104.69395 | 5368 ft | 29 kts | 148° |
| 2026-04-23 02:24 | 39.86312 | -104.69266 | 5367 ft | 28 kts | 149° |
| 2026-04-23 02:25 | 39.86143 | -104.69139 | 5368 ft | 28 kts | 148° |
| 2026-04-23 02:25 | 39.86043 | -104.69028 | 5365 ft | 13 kts | 115° |
| 2026-04-23 02:25 | 39.86036 | -104.68911 | 5368 ft | 13 kts | 90° |
| 2026-04-23 02:25 | 39.86036 | -104.68786 | 5364 ft | 14 kts | 90° |
| 2026-04-23 02:26 | 39.86035 | -104.68653 | 5368 ft | 15 kts | 90° |
| 2026-04-23 02:26 | 39.86024 | -104.68531 | 5368 ft | 10 kts | 123° |
| 2026-04-23 02:26 | 39.85962 | -104.68507 | 5368 ft | 10 kts | 178° |
| 2026-04-23 02:26 | 39.85889 | -104.68508 | 5368 ft | 11 kts | 180° |
| 2026-04-23 02:27 | 39.85809 | -104.68508 | 5366 ft | 12 kts | 180° |
| 2026-04-23 02:27 | 39.85724 | -104.68503 | 5368 ft | 13 kts | 163° |
| 2026-04-23 02:27 | 39.85689 | -104.68407 | 5368 ft | 13 kts | 92° |
| 2026-04-23 02:27 | 39.85690 | -104.68286 | 5368 ft | 14 kts | 90° |
| 2026-04-23 02:28 | 39.85674 | -104.68159 | 5368 ft | 15 kts | 99° |
| 2026-04-23 02:28 | 39.85669 | -104.68023 | 5368 ft | 16 kts | 90° |
| 2026-04-23 02:28 | 39.85668 | -104.67878 | 5368 ft | 16 kts | 91° |
| 2026-04-23 02:28 | 39.85637 | -104.67734 | 5365 ft | 17 kts | 129° |
| 2026-04-23 02:29 | 39.85569 | -104.67689 | 5365 ft | 7 kts | 155° |
| 2026-04-23 02:29 | 39.85525 | -104.67660 | 5368 ft | 7 kts | 145° |
| 2026-04-23 02:29 | 39.85483 | -104.67650 | 5365 ft | 5 kts | 199° |
| 2026-04-23 02:29 | 39.85469 | -104.67658 | 5368 ft | 2 kts | 206° |
| 2026-04-23 02:30 | 39.85456 | -104.67666 | 5368 ft | 1 kts | 208° |
| 2026-04-23 02:30 | 39.85452 | -104.67669 | 5368 ft | 0 kts | 208° |